Terminal Aerodrome Forecast
Issued by NWS

Home | Current Version | Previous Version | Text Only | Print | Product List | Glossary On
Versions: 1 2 3 4 5 6 7 8 9 10 11 12
683
FTUS42 TJSJ 112333
TAFKPK
TAF
TKPK 112333Z 1200/1224 04005KT P6SM VCSH FEW018 SCT030
     FM120600 05008KT P6SM SCT018
     FM121400 07012KT P6SM FEW022 SCT040
      AMD NOT SKED 1202/1211=

USA.gov is the U.S. government's official web portal to all federal, state and local government web resources and services.